sensor_id;sensor_type;location;lat;lon;timestamp;P1;durP1;ratioP1;P2;durP2;ratioP2
41921;SDS011;27609;51.002;5.354;2022-12-07T00:01:30;25.98;;;15.45;;
41921;SDS011;27609;51.002;5.354;2022-12-07T00:04:00;23.15;;;14.98;;
41921;SDS011;27609;51.002;5.354;2022-12-07T00:06:40;23.30;;;14.07;;
41921;SDS011;27609;51.002;5.354;2022-12-07T00:09:14;21.10;;;13.63;;
41921;SDS011;27609;51.002;5.354;2022-12-07T00:11:41;18.77;;;12.80;;
41921;SDS011;27609;51.002;5.354;2022-12-07T00:14:09;23.27;;;15.25;;
41921;SDS011;27609;51.002;5.354;2022-12-07T00:16:37;24.45;;;14.68;;
41921;SDS011;27609;51.002;5.354;2022-12-07T00:19:03;21.48;;;13.52;;
41921;SDS011;27609;51.002;5.354;2022-12-07T00:21:30;23.27;;;13.30;;
41921;SDS011;27609;51.002;5.354;2022-12-07T00:23:58;23.17;;;13.73;;
41921;SDS011;27609;51.002;5.354;2022-12-07T00:26:25;24.17;;;14.27;;
41921;SDS011;27609;51.002;5.354;2022-12-07T00:28:54;28.17;;;14.50;;
41921;SDS011;27609;51.002;5.354;2022-12-07T00:31:22;22.88;;;14.70;;
41921;SDS011;27609;51.002;5.354;2022-12-07T00:33:50;20.17;;;13.60;;
41921;SDS011;27609;51.002;5.354;2022-12-07T00:36:17;22.80;;;13.77;;
41921;SDS011;27609;51.002;5.354;2022-12-07T00:38:45;26.00;;;14.88;;
41921;SDS011;27609;51.002;5.354;2022-12-07T00:41:14;22.83;;;13.65;;
41921;SDS011;27609;51.002;5.354;2022-12-07T00:43:42;21.58;;;14.57;;
41921;SDS011;27609;51.002;5.354;2022-12-07T00:46:09;21.17;;;15.25;;
41921;SDS011;27609;51.002;5.354;2022-12-07T00:48:36;20.60;;;15.02;;
41921;SDS011;27609;51.002;5.354;2022-12-07T00:51:02;20.63;;;14.13;;
41921;SDS011;27609;51.002;5.354;2022-12-07T00:53:29;21.88;;;15.02;;
41921;SDS011;27609;51.002;5.354;2022-12-07T00:55:54;23.45;;;16.10;;
41921;SDS011;27609;51.002;5.354;2022-12-07T00:58:21;27.08;;;16.08;;
41921;SDS011;27609;51.002;5.354;2022-12-07T01:00:47;24.27;;;15.25;;
41921;SDS011;27609;51.002;5.354;2022-12-07T01:03:14;27.15;;;15.05;;
41921;SDS011;27609;51.002;5.354;2022-12-07T01:05:48;25.02;;;15.18;;
41921;SDS011;27609;51.002;5.354;2022-12-07T01:08:18;23.08;;;15.10;;
41921;SDS011;27609;51.002;5.354;2022-12-07T01:10:44;23.75;;;15.68;;
41921;SDS011;27609;51.002;5.354;2022-12-07T01:13:10;25.10;;;15.00;;
41921;SDS011;27609;51.002;5.354;2022-12-07T01:15:39;28.98;;;17.27;;
41921;SDS011;27609;51.002;5.354;2022-12-07T01:18:05;27.73;;;16.08;;
41921;SDS011;27609;51.002;5.354;2022-12-07T01:20:31;24.50;;;15.20;;
41921;SDS011;27609;51.002;5.354;2022-12-07T01:22:56;22.45;;;15.50;;
41921;SDS011;27609;51.002;5.354;2022-12-07T01:25:22;28.90;;;16.55;;
41921;SDS011;27609;51.002;5.354;2022-12-07T01:27:49;22.10;;;14.68;;
41921;SDS011;27609;51.002;5.354;2022-12-07T01:30:14;26.15;;;15.52;;
41921;SDS011;27609;51.002;5.354;2022-12-07T01:32:40;24.00;;;16.27;;
41921;SDS011;27609;51.002;5.354;2022-12-07T01:35:06;27.00;;;16.13;;
41921;SDS011;27609;51.002;5.354;2022-12-07T01:37:35;24.48;;;15.48;;
41921;SDS011;27609;51.002;5.354;2022-12-07T01:40:02;21.70;;;14.77;;
41921;SDS011;27609;51.002;5.354;2022-12-07T01:42:29;24.02;;;15.70;;
41921;SDS011;27609;51.002;5.354;2022-12-07T01:47:42;26.73;;;16.08;;
41921;SDS011;27609;51.002;5.354;2022-12-07T01:50:11;27.27;;;15.40;;
41921;SDS011;27609;51.002;5.354;2022-12-07T01:52:38;30.35;;;17.08;;
41921;SDS011;27609;51.002;5.354;2022-12-07T01:55:07;26.73;;;17.05;;
41921;SDS011;27609;51.002;5.354;2022-12-07T01:57:36;28.05;;;16.60;;
41921;SDS011;27609;51.002;5.354;2022-12-07T02:00:07;30.38;;;15.90;;
41921;SDS011;27609;51.002;5.354;2022-12-07T02:02:35;25.75;;;16.10;;
41921;SDS011;27609;51.002;5.354;2022-12-07T02:05:06;27.88;;;16.52;;
41921;SDS011;27609;51.002;5.354;2022-12-07T02:07:32;25.63;;;16.45;;
41921;SDS011;27609;51.002;5.354;2022-12-07T02:10:16;29.75;;;17.10;;
41921;SDS011;27609;51.002;5.354;2022-12-07T02:12:47;22.85;;;15.77;;
41921;SDS011;27609;51.002;5.354;2022-12-07T02:15:17;27.13;;;16.90;;
41921;SDS011;27609;51.002;5.354;2022-12-07T02:20:34;28.58;;;16.95;;
41921;SDS011;27609;51.002;5.354;2022-12-07T02:23:35;23.30;;;16.05;;
41921;SDS011;27609;51.002;5.354;2022-12-07T02:29:00;25.85;;;16.75;;
41921;SDS011;27609;51.002;5.354;2022-12-07T02:31:36;27.42;;;16.40;;
41921;SDS011;27609;51.002;5.354;2022-12-07T02:34:12;24.30;;;16.70;;
41921;SDS011;27609;51.002;5.354;2022-12-07T02:36:59;26.98;;;17.58;;
41921;SDS011;27609;51.002;5.354;2022-12-07T02:39:31;26.73;;;15.80;;
41921;SDS011;27609;51.002;5.354;2022-12-07T02:42:03;32.78;;;19.40;;
41921;SDS011;27609;51.002;5.354;2022-12-07T02:44:39;28.95;;;18.15;;
41921;SDS011;27609;51.002;5.354;2022-12-07T02:47:06;26.92;;;17.48;;
41921;SDS011;27609;51.002;5.354;2022-12-07T02:49:36;26.58;;;17.58;;
41921;SDS011;27609;51.002;5.354;2022-12-07T02:52:03;25.55;;;17.02;;
41921;SDS011;27609;51.002;5.354;2022-12-07T02:54:29;21.50;;;17.05;;
41921;SDS011;27609;51.002;5.354;2022-12-07T03:07:48;28.27;;;19.15;;
41921;SDS011;27609;51.002;5.354;2022-12-07T03:15:28;29.48;;;19.13;;
41921;SDS011;27609;51.002;5.354;2022-12-07T03:18:00;28.60;;;18.33;;
41921;SDS011;27609;51.002;5.354;2022-12-07T03:20:29;31.98;;;19.52;;
41921;SDS011;27609;51.002;5.354;2022-12-07T03:22:56;31.85;;;19.52;;
41921;SDS011;27609;51.002;5.354;2022-12-07T03:25:24;30.13;;;20.60;;
41921;SDS011;27609;51.002;5.354;2022-12-07T03:27:53;31.80;;;20.73;;
41921;SDS011;27609;51.002;5.354;2022-12-07T03:30:23;28.95;;;19.35;;
41921;SDS011;27609;51.002;5.354;2022-12-07T03:35:34;37.35;;;20.27;;
41921;SDS011;27609;51.002;5.354;2022-12-07T03:38:35;33.17;;;19.15;;
41921;SDS011;27609;51.002;5.354;2022-12-07T03:43:51;31.38;;;18.23;;
41921;SDS011;27609;51.002;5.354;2022-12-07T03:46:20;32.85;;;20.20;;
41921;SDS011;27609;51.002;5.354;2022-12-07T03:49:06;31.42;;;19.40;;
41921;SDS011;27609;51.002;5.354;2022-12-07T03:54:18;32.33;;;22.13;;
41921;SDS011;27609;51.002;5.354;2022-12-07T03:56:48;27.35;;;19.48;;
41921;SDS011;27609;51.002;5.354;2022-12-07T03:59:15;33.60;;;19.42;;
41921;SDS011;27609;51.002;5.354;2022-12-07T04:01:44;30.50;;;18.67;;
41921;SDS011;27609;51.002;5.354;2022-12-07T04:04:17;28.85;;;18.20;;
41921;SDS011;27609;51.002;5.354;2022-12-07T04:06:42;27.73;;;16.88;;
41921;SDS011;27609;51.002;5.354;2022-12-07T04:09:08;29.30;;;17.05;;
41921;SDS011;27609;51.002;5.354;2022-12-07T04:11:34;25.58;;;16.67;;
41921;SDS011;27609;51.002;5.354;2022-12-07T04:13:59;27.80;;;18.27;;
41921;SDS011;27609;51.002;5.354;2022-12-07T04:16:43;25.02;;;17.88;;
41921;SDS011;27609;51.002;5.354;2022-12-07T04:19:13;30.63;;;19.40;;
41921;SDS011;27609;51.002;5.354;2022-12-07T04:21:39;35.65;;;20.92;;
41921;SDS011;27609;51.002;5.354;2022-12-07T04:24:05;33.63;;;22.27;;
41921;SDS011;27609;51.002;5.354;2022-12-07T04:26:31;29.40;;;19.98;;
41921;SDS011;27609;51.002;5.354;2022-12-07T04:28:56;34.30;;;20.13;;
41921;SDS011;27609;51.002;5.354;2022-12-07T04:31:22;30.55;;;18.73;;
41921;SDS011;27609;51.002;5.354;2022-12-07T04:33:48;31.95;;;19.83;;
41921;SDS011;27609;51.002;5.354;2022-12-07T04:36:14;30.20;;;19.67;;
41921;SDS011;27609;51.002;5.354;2022-12-07T04:38:40;31.35;;;20.45;;
41921;SDS011;27609;51.002;5.354;2022-12-07T04:41:06;31.15;;;19.95;;
41921;SDS011;27609;51.002;5.354;2022-12-07T04:43:32;37.53;;;24.40;;
41921;SDS011;27609;51.002;5.354;2022-12-07T04:45:58;41.80;;;27.05;;
41921;SDS011;27609;51.002;5.354;2022-12-07T04:48:24;42.55;;;28.13;;
41921;SDS011;27609;51.002;5.354;2022-12-07T04:50:50;33.95;;;23.33;;
41921;SDS011;27609;51.002;5.354;2022-12-07T04:53:15;33.70;;;22.15;;
41921;SDS011;27609;51.002;5.354;2022-12-07T04:55:41;39.92;;;21.55;;
41921;SDS011;27609;51.002;5.354;2022-12-07T04:58:07;41.40;;;24.33;;
41921;SDS011;27609;51.002;5.354;2022-12-07T05:00:32;40.13;;;25.83;;
41921;SDS011;27609;51.002;5.354;2022-12-07T05:02:58;37.60;;;23.50;;
41921;SDS011;27609;51.002;5.354;2022-12-07T05:05:24;33.97;;;22.63;;
41921;SDS011;27609;51.002;5.354;2022-12-07T05:07:50;35.67;;;22.33;;
41921;SDS011;27609;51.002;5.354;2022-12-07T05:10:15;32.47;;;21.27;;
41921;SDS011;27609;51.002;5.354;2022-12-07T05:12:41;37.47;;;20.90;;
41921;SDS011;27609;51.002;5.354;2022-12-07T05:15:07;34.35;;;22.15;;
41921;SDS011;27609;51.002;5.354;2022-12-07T05:17:33;34.60;;;20.55;;
41921;SDS011;27609;51.002;5.354;2022-12-07T05:19:59;33.17;;;21.63;;
41921;SDS011;27609;51.002;5.354;2022-12-07T05:22:24;32.92;;;21.02;;
41921;SDS011;27609;51.002;5.354;2022-12-07T05:24:53;34.42;;;20.48;;
41921;SDS011;27609;51.002;5.354;2022-12-07T05:27:19;39.80;;;24.23;;
41921;SDS011;27609;51.002;5.354;2022-12-07T05:29:45;39.75;;;26.15;;
41921;SDS011;27609;51.002;5.354;2022-12-07T05:32:11;38.80;;;24.92;;
41921;SDS011;27609;51.002;5.354;2022-12-07T05:34:36;38.97;;;24.80;;
41921;SDS011;27609;51.002;5.354;2022-12-07T05:37:02;46.83;;;25.33;;
41921;SDS011;27609;51.002;5.354;2022-12-07T05:39:28;39.80;;;24.70;;
41921;SDS011;27609;51.002;5.354;2022-12-07T05:41:54;35.92;;;21.83;;
41921;SDS011;27609;51.002;5.354;2022-12-07T05:44:38;36.05;;;23.85;;
41921;SDS011;27609;51.002;5.354;2022-12-07T05:47:04;35.60;;;26.05;;
41921;SDS011;27609;51.002;5.354;2022-12-07T05:49:30;34.78;;;25.58;;
41921;SDS011;27609;51.002;5.354;2022-12-07T05:51:56;35.97;;;23.08;;
41921;SDS011;27609;51.002;5.354;2022-12-07T05:54:22;36.25;;;23.17;;
41921;SDS011;27609;51.002;5.354;2022-12-07T05:56:47;36.30;;;23.83;;
41921;SDS011;27609;51.002;5.354;2022-12-07T05:59:13;40.95;;;25.20;;
41921;SDS011;27609;51.002;5.354;2022-12-07T06:02:09;35.55;;;24.13;;
41921;SDS011;27609;51.002;5.354;2022-12-07T06:04:36;42.53;;;25.90;;
41921;SDS011;27609;51.002;5.354;2022-12-07T06:07:03;35.22;;;25.73;;
41921;SDS011;27609;51.002;5.354;2022-12-07T06:09:30;32.92;;;21.80;;
41921;SDS011;27609;51.002;5.354;2022-12-07T06:11:56;32.83;;;22.13;;
41921;SDS011;27609;51.002;5.354;2022-12-07T06:14:41;27.90;;;18.35;;
41921;SDS011;27609;51.002;5.354;2022-12-07T06:17:07;32.50;;;20.70;;
41921;SDS011;27609;51.002;5.354;2022-12-07T06:19:33;39.28;;;23.98;;
41921;SDS011;27609;51.002;5.354;2022-12-07T06:21:58;33.60;;;20.48;;
41921;SDS011;27609;51.002;5.354;2022-12-07T06:24:24;29.67;;;18.85;;
41921;SDS011;27609;51.002;5.354;2022-12-07T06:26:50;32.03;;;18.75;;
41921;SDS011;27609;51.002;5.354;2022-12-07T06:29:16;27.33;;;19.23;;
41921;SDS011;27609;51.002;5.354;2022-12-07T06:31:42;33.70;;;19.52;;
41921;SDS011;27609;51.002;5.354;2022-12-07T06:34:12;26.88;;;17.92;;
41921;SDS011;27609;51.002;5.354;2022-12-07T06:36:43;32.08;;;19.95;;
41921;SDS011;27609;51.002;5.354;2022-12-07T06:39:09;38.13;;;20.17;;
41921;SDS011;27609;51.002;5.354;2022-12-07T06:41:37;34.75;;;19.50;;
41921;SDS011;27609;51.002;5.354;2022-12-07T06:44:04;34.22;;;19.48;;
41921;SDS011;27609;51.002;5.354;2022-12-07T06:46:30;38.25;;;27.20;;
41921;SDS011;27609;51.002;5.354;2022-12-07T06:48:56;49.97;;;32.50;;
41921;SDS011;27609;51.002;5.354;2022-12-07T06:51:22;43.72;;;31.13;;
41921;SDS011;27609;51.002;5.354;2022-12-07T06:53:47;54.30;;;36.13;;
41921;SDS011;27609;51.002;5.354;2022-12-07T06:56:13;43.42;;;28.17;;
41921;SDS011;27609;51.002;5.354;2022-12-07T06:58:39;46.85;;;26.70;;
41921;SDS011;27609;51.002;5.354;2022-12-07T07:01:12;55.78;;;29.23;;
41921;SDS011;27609;51.002;5.354;2022-12-07T07:03:39;54.72;;;36.05;;
41921;SDS011;27609;51.002;5.354;2022-12-07T07:06:08;59.47;;;35.33;;
41921;SDS011;27609;51.002;5.354;2022-12-07T07:08:35;56.90;;;36.53;;
41921;SDS011;27609;51.002;5.354;2022-12-07T07:11:02;56.00;;;36.13;;
41921;SDS011;27609;51.002;5.354;2022-12-07T07:13:28;45.95;;;27.23;;
41921;SDS011;27609;51.002;5.354;2022-12-07T07:15:54;41.22;;;21.23;;
41921;SDS011;27609;51.002;5.354;2022-12-07T07:18:20;34.97;;;22.15;;
41921;SDS011;27609;51.002;5.354;2022-12-07T07:20:46;42.72;;;21.05;;
41921;SDS011;27609;51.002;5.354;2022-12-07T07:23:11;35.75;;;20.02;;
41921;SDS011;27609;51.002;5.354;2022-12-07T07:25:37;37.45;;;20.83;;
41921;SDS011;27609;51.002;5.354;2022-12-07T07:28:03;35.67;;;19.85;;
41921;SDS011;27609;51.002;5.354;2022-12-07T07:30:29;39.65;;;21.40;;
41921;SDS011;27609;51.002;5.354;2022-12-07T07:32:56;33.03;;;19.02;;
41921;SDS011;27609;51.002;5.354;2022-12-07T07:35:26;36.53;;;19.75;;
41921;SDS011;27609;51.002;5.354;2022-12-07T07:37:52;29.95;;;21.70;;
41921;SDS011;27609;51.002;5.354;2022-12-07T07:40:18;33.65;;;20.02;;
41921;SDS011;27609;51.002;5.354;2022-12-07T07:42:46;26.13;;;17.75;;
41921;SDS011;27609;51.002;5.354;2022-12-07T07:45:13;65.28;;;19.77;;
41921;SDS011;27609;51.002;5.354;2022-12-07T07:47:39;49.10;;;17.85;;
41921;SDS011;27609;51.002;5.354;2022-12-07T07:50:05;101.15;;;19.17;;
41921;SDS011;27609;51.002;5.354;2022-12-07T07:52:31;59.50;;;18.58;;
41921;SDS011;27609;51.002;5.354;2022-12-07T07:54:57;44.00;;;15.38;;
41921;SDS011;27609;51.002;5.354;2022-12-07T07:57:22;113.90;;;20.10;;
41921;SDS011;27609;51.002;5.354;2022-12-07T07:59:48;130.25;;;19.63;;
41921;SDS011;27609;51.002;5.354;2022-12-07T08:02:18;129.05;;;21.30;;
41921;SDS011;27609;51.002;5.354;2022-12-07T08:04:45;100.75;;;21.48;;
41921;SDS011;27609;51.002;5.354;2022-12-07T08:07:11;105.60;;;24.88;;
41921;SDS011;27609;51.002;5.354;2022-12-07T08:09:39;81.82;;;26.92;;
41921;SDS011;27609;51.002;5.354;2022-12-07T08:12:05;55.78;;;26.42;;
41921;SDS011;27609;51.002;5.354;2022-12-07T08:14:31;45.50;;;24.90;;
41921;SDS011;27609;51.002;5.354;2022-12-07T08:16:57;51.03;;;27.40;;
41921;SDS011;27609;51.002;5.354;2022-12-07T08:19:22;46.15;;;26.23;;
41921;SDS011;27609;51.002;5.354;2022-12-07T08:21:48;36.05;;;24.20;;
41921;SDS011;27609;51.002;5.354;2022-12-07T08:24:14;36.55;;;21.30;;
41921;SDS011;27609;51.002;5.354;2022-12-07T08:26:40;33.83;;;21.90;;
41921;SDS011;27609;51.002;5.354;2022-12-07T08:29:06;45.92;;;24.60;;
41921;SDS011;27609;51.002;5.354;2022-12-07T08:31:31;55.95;;;27.85;;
41921;SDS011;27609;51.002;5.354;2022-12-07T08:33:57;51.65;;;28.00;;
41921;SDS011;27609;51.002;5.354;2022-12-07T08:36:23;57.42;;;28.58;;
41921;SDS011;27609;51.002;5.354;2022-12-07T08:38:49;57.38;;;30.40;;
41921;SDS011;27609;51.002;5.354;2022-12-07T08:41:15;47.25;;;27.25;;
41921;SDS011;27609;51.002;5.354;2022-12-07T08:43:41;37.63;;;22.65;;
41921;SDS011;27609;51.002;5.354;2022-12-07T08:51:26;24.40;;;18.23;;
41921;SDS011;27609;51.002;5.354;2022-12-07T08:53:52;29.35;;;16.52;;
41921;SDS011;27609;51.002;5.354;2022-12-07T08:56:20;23.58;;;16.05;;
41921;SDS011;27609;51.002;5.354;2022-12-07T08:58:46;29.63;;;17.88;;
41921;SDS011;27609;51.002;5.354;2022-12-07T09:01:13;27.75;;;17.30;;
41921;SDS011;27609;51.002;5.354;2022-12-07T09:03:39;29.88;;;19.52;;
41921;SDS011;27609;51.002;5.354;2022-12-07T09:06:05;34.03;;;19.70;;
41921;SDS011;27609;51.002;5.354;2022-12-07T09:08:33;33.28;;;19.27;;
41921;SDS011;27609;51.002;5.354;2022-12-07T09:11:04;29.05;;;18.23;;
41921;SDS011;27609;51.002;5.354;2022-12-07T09:13:29;28.85;;;17.05;;
41921;SDS011;27609;51.002;5.354;2022-12-07T09:15:55;28.15;;;17.45;;
41921;SDS011;27609;51.002;5.354;2022-12-07T09:18:21;28.23;;;18.60;;
41921;SDS011;27609;51.002;5.354;2022-12-07T09:20:47;21.85;;;15.88;;
41921;SDS011;27609;51.002;5.354;2022-12-07T09:23:12;19.30;;;14.00;;
41921;SDS011;27609;51.002;5.354;2022-12-07T09:25:38;25.35;;;14.30;;
41921;SDS011;27609;51.002;5.354;2022-12-07T09:28:04;18.73;;;13.52;;
41921;SDS011;27609;51.002;5.354;2022-12-07T09:30:29;18.02;;;12.02;;
41921;SDS011;27609;51.002;5.354;2022-12-07T09:32:56;17.85;;;13.18;;
41921;SDS011;27609;51.002;5.354;2022-12-07T09:35:22;17.08;;;12.63;;
41921;SDS011;27609;51.002;5.354;2022-12-07T09:37:49;20.33;;;12.18;;
41921;SDS011;27609;51.002;5.354;2022-12-07T09:40:16;15.18;;;10.90;;
41921;SDS011;27609;51.002;5.354;2022-12-07T09:42:44;15.00;;;10.57;;
41921;SDS011;27609;51.002;5.354;2022-12-07T09:45:21;12.52;;;10.40;;
41921;SDS011;27609;51.002;5.354;2022-12-07T09:48:09;11.50;;;8.55;;
41921;SDS011;27609;51.002;5.354;2022-12-07T09:50:44;19.92;;;10.00;;
41921;SDS011;27609;51.002;5.354;2022-12-07T09:53:18;14.48;;;9.93;;
41921;SDS011;27609;51.002;5.354;2022-12-07T09:55:45;10.48;;;8.93;;
41921;SDS011;27609;51.002;5.354;2022-12-07T09:58:19;12.30;;;8.25;;
41921;SDS011;27609;51.002;5.354;2022-12-07T10:00:48;12.73;;;8.05;;
41921;SDS011;27609;51.002;5.354;2022-12-07T10:03:35;12.27;;;7.38;;
41921;SDS011;27609;51.002;5.354;2022-12-07T10:06:03;12.68;;;7.22;;
41921;SDS011;27609;51.002;5.354;2022-12-07T10:08:30;9.05;;;6.63;;
41921;SDS011;27609;51.002;5.354;2022-12-07T10:10:56;12.32;;;6.53;;
41921;SDS011;27609;51.002;5.354;2022-12-07T10:16:32;7.63;;;4.95;;
41921;SDS011;27609;51.002;5.354;2022-12-07T10:19:20;9.18;;;5.28;;
41921;SDS011;27609;51.002;5.354;2022-12-07T10:24:26;11.35;;;5.57;;
41921;SDS011;27609;51.002;5.354;2022-12-07T10:26:52;11.60;;;5.80;;
41921;SDS011;27609;51.002;5.354;2022-12-07T10:29:28;7.50;;;5.20;;
41921;SDS011;27609;51.002;5.354;2022-12-07T10:34:35;10.77;;;5.70;;
41921;SDS011;27609;51.002;5.354;2022-12-07T10:42:28;10.95;;;4.38;;
41921;SDS011;27609;51.002;5.354;2022-12-07T11:00:33;12.75;;;5.93;;
41921;SDS011;27609;51.002;5.354;2022-12-07T11:05:39;12.05;;;6.28;;
41921;SDS011;27609;51.002;5.354;2022-12-07T11:14:05;8.40;;;5.45;;
41921;SDS011;27609;51.002;5.354;2022-12-07T11:16:56;10.88;;;5.18;;
41921;SDS011;27609;51.002;5.354;2022-12-07T11:21:57;9.65;;;5.18;;
41921;SDS011;27609;51.002;5.354;2022-12-07T11:35:29;13.15;;;4.32;;
41921;SDS011;27609;51.002;5.354;2022-12-07T11:38:16;12.02;;;5.00;;
41921;SDS011;27609;51.002;5.354;2022-12-07T11:40:51;13.05;;;4.30;;
41921;SDS011;27609;51.002;5.354;2022-12-07T11:43:22;10.20;;;4.65;;
41921;SDS011;27609;51.002;5.354;2022-12-07T11:45:52;9.75;;;4.95;;
41921;SDS011;27609;51.002;5.354;2022-12-07T11:48:24;12.07;;;5.25;;
41921;SDS011;27609;51.002;5.354;2022-12-07T11:50:56;8.82;;;4.40;;
41921;SDS011;27609;51.002;5.354;2022-12-07T11:53:33;8.27;;;4.95;;
41921;SDS011;27609;51.002;5.354;2022-12-07T12:01:35;10.90;;;5.38;;
41921;SDS011;27609;51.002;5.354;2022-12-07T12:06:35;10.25;;;4.32;;
41921;SDS011;27609;51.002;5.354;2022-12-07T12:25:46;9.43;;;3.55;;
41921;SDS011;27609;51.002;5.354;2022-12-07T12:28:23;6.93;;;3.38;;
41921;SDS011;27609;51.002;5.354;2022-12-07T12:34:01;13.02;;;4.03;;
41921;SDS011;27609;51.002;5.354;2022-12-07T12:44:03;12.55;;;6.10;;
41921;SDS011;27609;51.002;5.354;2022-12-07T12:47:01;10.98;;;4.88;;
41921;SDS011;27609;51.002;5.354;2022-12-07T12:54:37;8.55;;;5.15;;
41921;SDS011;27609;51.002;5.354;2022-12-07T13:02:29;9.45;;;5.80;;
41921;SDS011;27609;51.002;5.354;2022-12-07T13:16:35;11.52;;;6.75;;
41921;SDS011;27609;51.002;5.354;2022-12-07T13:28:39;6.45;;;3.08;;
41921;SDS011;27609;51.002;5.354;2022-12-07T13:31:11;10.02;;;4.35;;
41921;SDS011;27609;51.002;5.354;2022-12-07T13:33:45;7.57;;;3.75;;
41921;SDS011;27609;51.002;5.354;2022-12-07T13:38:48;7.18;;;3.03;;
41921;SDS011;27609;51.002;5.354;2022-12-07T13:41:37;7.10;;;4.20;;
41921;SDS011;27609;51.002;5.354;2022-12-07T13:44:16;6.35;;;5.63;;
41921;SDS011;27609;51.002;5.354;2022-12-07T13:46:51;5.50;;;3.50;;
41921;SDS011;27609;51.002;5.354;2022-12-07T13:49:24;6.30;;;3.03;;
41921;SDS011;27609;51.002;5.354;2022-12-07T13:51:52;6.18;;;3.88;;
41921;SDS011;27609;51.002;5.354;2022-12-07T13:54:19;10.45;;;5.22;;
41921;SDS011;27609;51.002;5.354;2022-12-07T13:56:47;16.40;;;6.50;;
41921;SDS011;27609;51.002;5.354;2022-12-07T13:59:25;12.38;;;5.65;;
41921;SDS011;27609;51.002;5.354;2022-12-07T14:01:52;12.30;;;4.97;;
41921;SDS011;27609;51.002;5.354;2022-12-07T14:04:19;13.35;;;6.03;;
41921;SDS011;27609;51.002;5.354;2022-12-07T14:06:51;12.60;;;5.40;;
41921;SDS011;27609;51.002;5.354;2022-12-07T14:09:26;11.30;;;4.80;;
41921;SDS011;27609;51.002;5.354;2022-12-07T14:11:53;9.57;;;4.88;;
41921;SDS011;27609;51.002;5.354;2022-12-07T14:14:25;9.93;;;4.93;;
41921;SDS011;27609;51.002;5.354;2022-12-07T14:17:09;21.00;;;5.60;;
41921;SDS011;27609;51.002;5.354;2022-12-07T14:19:41;9.40;;;4.68;;
41921;SDS011;27609;51.002;5.354;2022-12-07T14:22:26;11.45;;;4.88;;
41921;SDS011;27609;51.002;5.354;2022-12-07T14:25:09;8.88;;;4.38;;
41921;SDS011;27609;51.002;5.354;2022-12-07T14:30:25;7.78;;;5.05;;
41921;SDS011;27609;51.002;5.354;2022-12-07T14:33:04;10.10;;;5.07;;
41921;SDS011;27609;51.002;5.354;2022-12-07T14:35:30;14.15;;;6.15;;
41921;SDS011;27609;51.002;5.354;2022-12-07T14:37:57;7.85;;;5.05;;
41921;SDS011;27609;51.002;5.354;2022-12-07T14:40:24;9.18;;;4.72;;
41921;SDS011;27609;51.002;5.354;2022-12-07T14:43:00;12.63;;;4.80;;
41921;SDS011;27609;51.002;5.354;2022-12-07T14:45:30;18.33;;;4.95;;
41921;SDS011;27609;51.002;5.354;2022-12-07T14:47:56;9.10;;;4.88;;
41921;SDS011;27609;51.002;5.354;2022-12-07T14:50:21;14.32;;;6.82;;
41921;SDS011;27609;51.002;5.354;2022-12-07T14:52:52;12.18;;;6.13;;
41921;SDS011;27609;51.002;5.354;2022-12-07T14:57:51;18.48;;;8.77;;
41921;SDS011;27609;51.002;5.354;2022-12-07T15:00:17;15.88;;;8.57;;
41921;SDS011;27609;51.002;5.354;2022-12-07T15:02:44;37.20;;;18.50;;
41921;SDS011;27609;51.002;5.354;2022-12-07T15:05:11;43.45;;;19.73;;
41921;SDS011;27609;51.002;5.354;2022-12-07T15:07:37;28.30;;;14.18;;
41921;SDS011;27609;51.002;5.354;2022-12-07T15:10:02;50.90;;;24.00;;
41921;SDS011;27609;51.002;5.354;2022-12-07T15:12:28;44.03;;;19.92;;
41921;SDS011;27609;51.002;5.354;2022-12-07T15:14:54;84.13;;;36.67;;
41921;SDS011;27609;51.002;5.354;2022-12-07T15:17:20;26.45;;;16.08;;
41921;SDS011;27609;51.002;5.354;2022-12-07T15:19:45;17.75;;;10.23;;
41921;SDS011;27609;51.002;5.354;2022-12-07T15:22:11;17.70;;;8.15;;
41921;SDS011;27609;51.002;5.354;2022-12-07T15:24:37;13.35;;;7.43;;
41921;SDS011;27609;51.002;5.354;2022-12-07T15:27:03;12.88;;;7.53;;
41921;SDS011;27609;51.002;5.354;2022-12-07T15:29:29;12.93;;;7.63;;
41921;SDS011;27609;51.002;5.354;2022-12-07T15:31:55;10.85;;;6.85;;
41921;SDS011;27609;51.002;5.354;2022-12-07T15:34:20;10.30;;;7.15;;
41921;SDS011;27609;51.002;5.354;2022-12-07T15:36:46;20.23;;;7.93;;
41921;SDS011;27609;51.002;5.354;2022-12-07T15:39:12;13.82;;;7.90;;
41921;SDS011;27609;51.002;5.354;2022-12-07T15:41:38;11.10;;;6.70;;
41921;SDS011;27609;51.002;5.354;2022-12-07T15:44:03;11.75;;;7.43;;
41921;SDS011;27609;51.002;5.354;2022-12-07T15:46:47;22.65;;;8.02;;
41921;SDS011;27609;51.002;5.354;2022-12-07T15:49:14;14.55;;;8.95;;
41921;SDS011;27609;51.002;5.354;2022-12-07T15:51:41;16.30;;;9.88;;
41921;SDS011;27609;51.002;5.354;2022-12-07T15:54:11;16.83;;;10.23;;
41921;SDS011;27609;51.002;5.354;2022-12-07T15:56:45;18.38;;;10.68;;
41921;SDS011;27609;51.002;5.354;2022-12-07T15:59:11;16.52;;;11.73;;
41921;SDS011;27609;51.002;5.354;2022-12-07T16:01:36;9.95;;;8.23;;
41921;SDS011;27609;51.002;5.354;2022-12-07T16:04:02;12.45;;;8.45;;
41921;SDS011;27609;51.002;5.354;2022-12-07T16:06:28;18.75;;;9.18;;
41921;SDS011;27609;51.002;5.354;2022-12-07T16:08:53;10.30;;;6.80;;
41921;SDS011;27609;51.002;5.354;2022-12-07T16:11:19;10.38;;;7.22;;
41921;SDS011;27609;51.002;5.354;2022-12-07T16:13:46;12.57;;;7.80;;
41921;SDS011;27609;51.002;5.354;2022-12-07T16:16:12;11.75;;;6.93;;
41921;SDS011;27609;51.002;5.354;2022-12-07T16:18:39;12.00;;;8.07;;
41921;SDS011;27609;51.002;5.354;2022-12-07T16:21:07;10.50;;;7.35;;
41921;SDS011;27609;51.002;5.354;2022-12-07T16:23:32;16.25;;;6.82;;
41921;SDS011;27609;51.002;5.354;2022-12-07T16:26:09;8.38;;;7.38;;
41921;SDS011;27609;51.002;5.354;2022-12-07T16:28:37;16.38;;;8.00;;
41921;SDS011;27609;51.002;5.354;2022-12-07T16:31:04;11.05;;;7.03;;
41921;SDS011;27609;51.002;5.354;2022-12-07T16:33:35;11.73;;;8.50;;
41921;SDS011;27609;51.002;5.354;2022-12-07T16:36:03;7.50;;;6.20;;
41921;SDS011;27609;51.002;5.354;2022-12-07T16:38:30;7.90;;;5.47;;
41921;SDS011;27609;51.002;5.354;2022-12-07T16:40:55;14.13;;;7.35;;
41921;SDS011;27609;51.002;5.354;2022-12-07T16:43:21;8.35;;;6.57;;
41921;SDS011;27609;51.002;5.354;2022-12-07T16:45:47;12.00;;;7.55;;
41921;SDS011;27609;51.002;5.354;2022-12-07T16:48:16;12.52;;;7.80;;
41921;SDS011;27609;51.002;5.354;2022-12-07T16:50:42;14.90;;;10.45;;
41921;SDS011;27609;51.002;5.354;2022-12-07T16:53:09;14.43;;;10.35;;
41921;SDS011;27609;51.002;5.354;2022-12-07T16:55:38;28.38;;;16.65;;
41921;SDS011;27609;51.002;5.354;2022-12-07T16:58:05;18.02;;;9.57;;
41921;SDS011;27609;51.002;5.354;2022-12-07T17:00:31;12.38;;;7.72;;
41921;SDS011;27609;51.002;5.354;2022-12-07T17:02:57;12.57;;;8.98;;
41921;SDS011;27609;51.002;5.354;2022-12-07T17:05:23;12.68;;;9.68;;
41921;SDS011;27609;51.002;5.354;2022-12-07T17:07:49;11.45;;;7.70;;
41921;SDS011;27609;51.002;5.354;2022-12-07T17:10:15;11.55;;;8.20;;
41921;SDS011;27609;51.002;5.354;2022-12-07T17:12:41;14.05;;;9.02;;
41921;SDS011;27609;51.002;5.354;2022-12-07T17:15:07;10.30;;;7.95;;
41921;SDS011;27609;51.002;5.354;2022-12-07T17:17:52;10.60;;;7.70;;
41921;SDS011;27609;51.002;5.354;2022-12-07T17:20:22;15.38;;;7.78;;